sensor_id;sensor_type;location;lat;lon;timestamp;temperature;humidity
13806;DHT22;6974;53.606;9.872;2023-03-05T00:00:09;5.30;99.90
13806;DHT22;6974;53.606;9.872;2023-03-05T00:02:36;5.30;99.90
13806;DHT22;6974;53.606;9.872;2023-03-05T00:05:03;5.30;99.90
13806;DHT22;6974;53.606;9.872;2023-03-05T00:07:31;5.30;99.90
13806;DHT22;6974;53.606;9.872;2023-03-05T00:09:58;5.30;99.90
13806;DHT22;6974;53.606;9.872;2023-03-05T00:12:25;5.30;99.90
13806;DHT22;6974;53.606;9.872;2023-03-05T00:14:52;5.20;99.90
13806;DHT22;6974;53.606;9.872;2023-03-05T00:17:20;5.20;99.90
13806;DHT22;6974;53.606;9.872;2023-03-05T00:19:47;5.30;99.90
13806;DHT22;6974;53.606;9.872;2023-03-05T00:22:14;5.30;99.90
13806;DHT22;6974;53.606;9.872;2023-03-05T00:24:41;5.30;99.90
13806;DHT22;6974;53.606;9.872;2023-03-05T00:27:08;5.30;99.90
13806;DHT22;6974;53.606;9.872;2023-03-05T00:29:35;5.30;99.90
13806;DHT22;6974;53.606;9.872;2023-03-05T00:32:01;5.30;99.90
13806;DHT22;6974;53.606;9.872;2023-03-05T00:34:30;5.30;99.90
13806;DHT22;6974;53.606;9.872;2023-03-05T00:36:56;5.30;99.90
13806;DHT22;6974;53.606;9.872;2023-03-05T00:39:23;5.20;99.90
13806;DHT22;6974;53.606;9.872;2023-03-05T00:41:50;5.00;99.90
13806;DHT22;6974;53.606;9.872;2023-03-05T00:44:17;5.00;99.90
13806;DHT22;6974;53.606;9.872;2023-03-05T00:46:44;5.00;99.90
13806;DHT22;6974;53.606;9.872;2023-03-05T00:49:10;4.90;99.90
13806;DHT22;6974;53.606;9.872;2023-03-05T00:51:40;4.80;99.90
13806;DHT22;6974;53.606;9.872;2023-03-05T00:54:07;4.80;99.90
13806;DHT22;6974;53.606;9.872;2023-03-05T00:56:33;4.70;99.90
13806;DHT22;6974;53.606;9.872;2023-03-05T00:59:00;4.70;99.90
13806;DHT22;6974;53.606;9.872;2023-03-05T01:01:27;4.70;99.90
13806;DHT22;6974;53.606;9.872;2023-03-05T01:03:54;4.70;99.90
13806;DHT22;6974;53.606;9.872;2023-03-05T01:06:22;4.70;99.90
13806;DHT22;6974;53.606;9.872;2023-03-05T01:08:50;4.70;99.90
13806;DHT22;6974;53.606;9.872;2023-03-05T01:11:17;4.70;99.90
13806;DHT22;6974;53.606;9.872;2023-03-05T01:13:44;4.70;99.90
13806;DHT22;6974;53.606;9.872;2023-03-05T01:16:11;4.70;99.90
13806;DHT22;6974;53.606;9.872;2023-03-05T01:18:38;4.60;99.90
13806;DHT22;6974;53.606;9.872;2023-03-05T01:21:06;4.60;99.90
13806;DHT22;6974;53.606;9.872;2023-03-05T01:23:32;4.50;99.90
13806;DHT22;6974;53.606;9.872;2023-03-05T01:26:04;4.50;99.90
13806;DHT22;6974;53.606;9.872;2023-03-05T01:28:31;4.50;99.90
13806;DHT22;6974;53.606;9.872;2023-03-05T01:30:58;4.50;99.90
13806;DHT22;6974;53.606;9.872;2023-03-05T01:33:24;4.50;99.90
13806;DHT22;6974;53.606;9.872;2023-03-05T01:35:51;4.50;99.90
13806;DHT22;6974;53.606;9.872;2023-03-05T01:38:18;4.50;99.90
13806;DHT22;6974;53.606;9.872;2023-03-05T01:40:45;4.50;99.90
13806;DHT22;6974;53.606;9.872;2023-03-05T01:43:22;4.60;99.90
13806;DHT22;6974;53.606;9.872;2023-03-05T01:46:20;4.50;99.90
13806;DHT22;6974;53.606;9.872;2023-03-05T01:48:50;4.50;99.90
13806;DHT22;6974;53.606;9.872;2023-03-05T01:51:19;4.50;99.90
13806;DHT22;6974;53.606;9.872;2023-03-05T01:53:47;4.60;99.90
13806;DHT22;6974;53.606;9.872;2023-03-05T01:56:14;4.60;99.90
13806;DHT22;6974;53.606;9.872;2023-03-05T01:58:43;4.60;99.90
13806;DHT22;6974;53.606;9.872;2023-03-05T02:01:10;4.60;99.90
13806;DHT22;6974;53.606;9.872;2023-03-05T02:03:38;4.50;99.90
13806;DHT22;6974;53.606;9.872;2023-03-05T02:06:06;4.50;99.90
13806;DHT22;6974;53.606;9.872;2023-03-05T02:08:33;4.60;99.90
13806;DHT22;6974;53.606;9.872;2023-03-05T02:11:00;4.50;99.90
13806;DHT22;6974;53.606;9.872;2023-03-05T02:13:30;4.50;99.90
13806;DHT22;6974;53.606;9.872;2023-03-05T02:16:01;4.50;99.90
13806;DHT22;6974;53.606;9.872;2023-03-05T02:18:28;4.50;99.90
13806;DHT22;6974;53.606;9.872;2023-03-05T02:21:02;4.40;99.90
13806;DHT22;6974;53.606;9.872;2023-03-05T02:23:31;4.40;99.90
13806;DHT22;6974;53.606;9.872;2023-03-05T02:26:01;4.50;99.90
13806;DHT22;6974;53.606;9.872;2023-03-05T02:28:31;4.40;99.90
13806;DHT22;6974;53.606;9.872;2023-03-05T02:31:00;4.50;99.90
13806;DHT22;6974;53.606;9.872;2023-03-05T02:33:27;4.40;99.90
13806;DHT22;6974;53.606;9.872;2023-03-05T02:35:54;4.40;99.90
13806;DHT22;6974;53.606;9.872;2023-03-05T02:38:22;4.40;99.90
13806;DHT22;6974;53.606;9.872;2023-03-05T02:40:48;4.50;99.90
13806;DHT22;6974;53.606;9.872;2023-03-05T02:43:15;4.50;99.90
13806;DHT22;6974;53.606;9.872;2023-03-05T02:45:42;4.40;99.90
13806;DHT22;6974;53.606;9.872;2023-03-05T02:48:09;4.40;99.90
13806;DHT22;6974;53.606;9.872;2023-03-05T02:50:36;4.40;99.90
13806;DHT22;6974;53.606;9.872;2023-03-05T02:53:04;4.40;99.90
13806;DHT22;6974;53.606;9.872;2023-03-05T02:55:32;4.40;99.90
13806;DHT22;6974;53.606;9.872;2023-03-05T02:57:59;4.40;99.90
13806;DHT22;6974;53.606;9.872;2023-03-05T03:00:26;4.40;99.90
13806;DHT22;6974;53.606;9.872;2023-03-05T03:02:53;4.30;99.90
13806;DHT22;6974;53.606;9.872;2023-03-05T03:05:20;4.30;99.90
13806;DHT22;6974;53.606;9.872;2023-03-05T03:07:47;4.30;99.90
13806;DHT22;6974;53.606;9.872;2023-03-05T03:10:14;4.30;99.90
13806;DHT22;6974;53.606;9.872;2023-03-05T03:12:44;4.30;99.90
13806;DHT22;6974;53.606;9.872;2023-03-05T03:15:13;4.30;99.90
13806;DHT22;6974;53.606;9.872;2023-03-05T03:17:40;4.30;99.90
13806;DHT22;6974;53.606;9.872;2023-03-05T03:20:09;4.20;99.90
13806;DHT22;6974;53.606;9.872;2023-03-05T03:22:38;4.20;99.90
13806;DHT22;6974;53.606;9.872;2023-03-05T03:25:07;4.30;99.90
13806;DHT22;6974;53.606;9.872;2023-03-05T03:27:33;4.30;99.90
13806;DHT22;6974;53.606;9.872;2023-03-05T03:30:02;4.30;99.90
13806;DHT22;6974;53.606;9.872;2023-03-05T03:32:29;4.20;99.90
13806;DHT22;6974;53.606;9.872;2023-03-05T03:34:56;4.20;99.90
13806;DHT22;6974;53.606;9.872;2023-03-05T03:37:24;4.20;99.90
13806;DHT22;6974;53.606;9.872;2023-03-05T03:39:51;4.10;99.90
13806;DHT22;6974;53.606;9.872;2023-03-05T03:42:18;4.00;99.90
13806;DHT22;6974;53.606;9.872;2023-03-05T03:44:45;4.00;99.90
13806;DHT22;6974;53.606;9.872;2023-03-05T03:47:13;4.00;99.90
13806;DHT22;6974;53.606;9.872;2023-03-05T03:49:45;4.00;99.90
13806;DHT22;6974;53.606;9.872;2023-03-05T03:52:12;4.00;99.90
13806;DHT22;6974;53.606;9.872;2023-03-05T03:54:39;4.00;99.90
13806;DHT22;6974;53.606;9.872;2023-03-05T03:57:05;4.10;99.90
13806;DHT22;6974;53.606;9.872;2023-03-05T03:59:32;4.10;99.90
13806;DHT22;6974;53.606;9.872;2023-03-05T04:01:59;4.10;99.90
13806;DHT22;6974;53.606;9.872;2023-03-05T04:04:27;4.10;99.90
13806;DHT22;6974;53.606;9.872;2023-03-05T04:06:55;4.10;99.90
13806;DHT22;6974;53.606;9.872;2023-03-05T04:09:21;4.20;99.90
13806;DHT22;6974;53.606;9.872;2023-03-05T04:11:48;4.10;99.90
13806;DHT22;6974;53.606;9.872;2023-03-05T04:14:15;4.10;99.90
13806;DHT22;6974;53.606;9.872;2023-03-05T04:16:42;4.10;99.90
13806;DHT22;6974;53.606;9.872;2023-03-05T04:19:09;4.10;99.90
13806;DHT22;6974;53.606;9.872;2023-03-05T04:21:37;4.20;99.90
13806;DHT22;6974;53.606;9.872;2023-03-05T04:24:05;4.10;99.90
13806;DHT22;6974;53.606;9.872;2023-03-05T04:26:32;4.10;99.90
13806;DHT22;6974;53.606;9.872;2023-03-05T04:28:59;4.20;99.90
13806;DHT22;6974;53.606;9.872;2023-03-05T04:31:26;4.20;99.90
13806;DHT22;6974;53.606;9.872;2023-03-05T04:33:53;4.20;99.90
13806;DHT22;6974;53.606;9.872;2023-03-05T04:36:20;4.20;99.90
13806;DHT22;6974;53.606;9.872;2023-03-05T04:38:48;4.20;99.90
13806;DHT22;6974;53.606;9.872;2023-03-05T04:41:15;4.20;99.90
13806;DHT22;6974;53.606;9.872;2023-03-05T04:43:41;4.30;99.90
13806;DHT22;6974;53.606;9.872;2023-03-05T04:46:08;4.30;99.90
13806;DHT22;6974;53.606;9.872;2023-03-05T04:48:35;4.20;99.90
13806;DHT22;6974;53.606;9.872;2023-03-05T04:51:02;4.30;99.90
13806;DHT22;6974;53.606;9.872;2023-03-05T04:53:29;4.20;99.90
13806;DHT22;6974;53.606;9.872;2023-03-05T04:55:57;4.20;99.90
13806;DHT22;6974;53.606;9.872;2023-03-05T04:58:26;4.30;99.90
13806;DHT22;6974;53.606;9.872;2023-03-05T05:00:53;4.30;99.90
13806;DHT22;6974;53.606;9.872;2023-03-05T05:03:20;4.30;99.90
13806;DHT22;6974;53.606;9.872;2023-03-05T05:05:53;4.30;99.90
13806;DHT22;6974;53.606;9.872;2023-03-05T05:08:20;4.30;99.90
13806;DHT22;6974;53.606;9.872;2023-03-05T05:10:56;4.30;99.90
13806;DHT22;6974;53.606;9.872;2023-03-05T05:13:23;4.30;99.90
13806;DHT22;6974;53.606;9.872;2023-03-05T05:15:50;4.30;99.90
13806;DHT22;6974;53.606;9.872;2023-03-05T05:18:17;4.30;99.90
13806;DHT22;6974;53.606;9.872;2023-03-05T05:20:44;4.30;99.90
13806;DHT22;6974;53.606;9.872;2023-03-05T05:23:11;4.30;99.90
13806;DHT22;6974;53.606;9.872;2023-03-05T05:25:38;4.20;99.90
13806;DHT22;6974;53.606;9.872;2023-03-05T05:28:06;4.30;99.90
13806;DHT22;6974;53.606;9.872;2023-03-05T05:30:33;4.30;99.90
13806;DHT22;6974;53.606;9.872;2023-03-05T05:33:00;4.20;99.90
13806;DHT22;6974;53.606;9.872;2023-03-05T05:35:27;4.30;99.90
13806;DHT22;6974;53.606;9.872;2023-03-05T05:37:54;4.20;99.90
13806;DHT22;6974;53.606;9.872;2023-03-05T05:40:21;4.20;99.90
13806;DHT22;6974;53.606;9.872;2023-03-05T05:42:47;4.20;99.90
13806;DHT22;6974;53.606;9.872;2023-03-05T05:45:16;4.10;99.90
13806;DHT22;6974;53.606;9.872;2023-03-05T05:47:42;4.10;99.90
13806;DHT22;6974;53.606;9.872;2023-03-05T05:50:10;4.10;99.90
13806;DHT22;6974;53.606;9.872;2023-03-05T05:52:37;4.10;99.90
13806;DHT22;6974;53.606;9.872;2023-03-05T05:55:05;4.20;99.90
13806;DHT22;6974;53.606;9.872;2023-03-05T05:57:33;4.20;99.90
13806;DHT22;6974;53.606;9.872;2023-03-05T06:00:00;4.20;99.90
13806;DHT22;6974;53.606;9.872;2023-03-05T06:02:28;4.20;99.90
13806;DHT22;6974;53.606;9.872;2023-03-05T06:04:55;4.20;99.90
13806;DHT22;6974;53.606;9.872;2023-03-05T06:07:22;4.20;99.90
13806;DHT22;6974;53.606;9.872;2023-03-05T06:09:49;4.20;99.90
13806;DHT22;6974;53.606;9.872;2023-03-05T06:12:16;4.20;99.90
13806;DHT22;6974;53.606;9.872;2023-03-05T06:14:43;4.20;99.90
13806;DHT22;6974;53.606;9.872;2023-03-05T06:17:09;4.20;99.90
13806;DHT22;6974;53.606;9.872;2023-03-05T06:19:38;4.10;99.90
13806;DHT22;6974;53.606;9.872;2023-03-05T06:22:04;4.10;99.90
13806;DHT22;6974;53.606;9.872;2023-03-05T06:24:31;4.10;99.90
13806;DHT22;6974;53.606;9.872;2023-03-05T06:26:58;4.20;99.90
13806;DHT22;6974;53.606;9.872;2023-03-05T06:29:25;4.10;99.90
13806;DHT22;6974;53.606;9.872;2023-03-05T06:31:52;4.10;99.90
13806;DHT22;6974;53.606;9.872;2023-03-05T06:34:18;4.10;99.90
13806;DHT22;6974;53.606;9.872;2023-03-05T06:36:47;4.10;99.90
13806;DHT22;6974;53.606;9.872;2023-03-05T06:39:14;4.20;99.90
13806;DHT22;6974;53.606;9.872;2023-03-05T06:41:41;4.20;99.90
13806;DHT22;6974;53.606;9.872;2023-03-05T06:44:09;4.20;99.90
13806;DHT22;6974;53.606;9.872;2023-03-05T06:46:36;4.20;99.90
13806;DHT22;6974;53.606;9.872;2023-03-05T06:49:03;4.30;99.90
13806;DHT22;6974;53.606;9.872;2023-03-05T06:51:33;4.30;99.90
13806;DHT22;6974;53.606;9.872;2023-03-05T06:54:03;4.20;99.90
13806;DHT22;6974;53.606;9.872;2023-03-05T06:56:30;4.20;99.90
13806;DHT22;6974;53.606;9.872;2023-03-05T06:58:57;4.20;99.90
13806;DHT22;6974;53.606;9.872;2023-03-05T07:01:24;4.20;99.90
13806;DHT22;6974;53.606;9.872;2023-03-05T07:03:53;4.20;99.90
13806;DHT22;6974;53.606;9.872;2023-03-05T07:06:21;4.20;99.90
13806;DHT22;6974;53.606;9.872;2023-03-05T07:08:48;4.30;99.90
13806;DHT22;6974;53.606;9.872;2023-03-05T07:11:18;4.30;99.90
13806;DHT22;6974;53.606;9.872;2023-03-05T07:13:46;4.30;99.90
13806;DHT22;6974;53.606;9.872;2023-03-05T07:16:14;4.30;99.90
13806;DHT22;6974;53.606;9.872;2023-03-05T07:18:42;4.40;99.90
13806;DHT22;6974;53.606;9.872;2023-03-05T07:21:11;4.40;99.90
13806;DHT22;6974;53.606;9.872;2023-03-05T07:23:40;4.40;99.90
13806;DHT22;6974;53.606;9.872;2023-03-05T07:26:07;4.40;99.90
13806;DHT22;6974;53.606;9.872;2023-03-05T07:28:35;4.40;99.90
13806;DHT22;6974;53.606;9.872;2023-03-05T07:31:04;4.50;99.90
13806;DHT22;6974;53.606;9.872;2023-03-05T07:33:32;4.50;99.90
13806;DHT22;6974;53.606;9.872;2023-03-05T07:35:59;4.60;99.90
13806;DHT22;6974;53.606;9.872;2023-03-05T07:38:28;4.60;99.90
13806;DHT22;6974;53.606;9.872;2023-03-05T07:40:55;4.60;99.90
13806;DHT22;6974;53.606;9.872;2023-03-05T07:43:22;4.60;99.90
13806;DHT22;6974;53.606;9.872;2023-03-05T07:45:50;4.60;99.90
13806;DHT22;6974;53.606;9.872;2023-03-05T07:48:18;4.50;99.90
13806;DHT22;6974;53.606;9.872;2023-03-05T07:50:46;4.40;99.90
13806;DHT22;6974;53.606;9.872;2023-03-05T07:53:14;4.40;99.90
13806;DHT22;6974;53.606;9.872;2023-03-05T07:55:41;4.40;99.90
13806;DHT22;6974;53.606;9.872;2023-03-05T07:58:09;4.50;99.90
13806;DHT22;6974;53.606;9.872;2023-03-05T08:00:36;4.50;99.90
13806;DHT22;6974;53.606;9.872;2023-03-05T08:03:04;4.50;99.90
13806;DHT22;6974;53.606;9.872;2023-03-05T08:05:31;4.50;99.90
13806;DHT22;6974;53.606;9.872;2023-03-05T08:07:58;4.40;99.90
13806;DHT22;6974;53.606;9.872;2023-03-05T08:10:33;4.50;99.90
13806;DHT22;6974;53.606;9.872;2023-03-05T08:13:01;4.50;99.90
13806;DHT22;6974;53.606;9.872;2023-03-05T08:15:28;4.50;99.90
13806;DHT22;6974;53.606;9.872;2023-03-05T08:17:56;4.60;99.90
13806;DHT22;6974;53.606;9.872;2023-03-05T08:20:24;4.60;99.90
13806;DHT22;6974;53.606;9.872;2023-03-05T08:22:51;4.60;99.90
13806;DHT22;6974;53.606;9.872;2023-03-05T08:25:18;4.70;99.90
13806;DHT22;6974;53.606;9.872;2023-03-05T08:27:46;4.70;99.90
13806;DHT22;6974;53.606;9.872;2023-03-05T08:30:15;4.70;99.90
13806;DHT22;6974;53.606;9.872;2023-03-05T08:32:43;4.80;99.90
13806;DHT22;6974;53.606;9.872;2023-03-05T08:35:10;4.90;99.90
13806;DHT22;6974;53.606;9.872;2023-03-05T08:37:39;4.90;99.90
13806;DHT22;6974;53.606;9.872;2023-03-05T08:40:06;4.90;99.90
13806;DHT22;6974;53.606;9.872;2023-03-05T08:42:33;5.00;99.90
13806;DHT22;6974;53.606;9.872;2023-03-05T08:45:00;5.00;99.90
13806;DHT22;6974;53.606;9.872;2023-03-05T08:47:27;4.90;99.90
13806;DHT22;6974;53.606;9.872;2023-03-05T08:49:54;4.90;99.90
13806;DHT22;6974;53.606;9.872;2023-03-05T08:52:22;4.90;99.90
13806;DHT22;6974;53.606;9.872;2023-03-05T08:54:50;5.00;99.90
13806;DHT22;6974;53.606;9.872;2023-03-05T08:57:17;4.90;99.90
13806;DHT22;6974;53.606;9.872;2023-03-05T08:59:44;5.00;99.90
13806;DHT22;6974;53.606;9.872;2023-03-05T09:02:11;5.10;99.90
13806;DHT22;6974;53.606;9.872;2023-03-05T09:04:39;5.10;99.90
13806;DHT22;6974;53.606;9.872;2023-03-05T09:07:06;5.20;99.90
13806;DHT22;6974;53.606;9.872;2023-03-05T09:09:33;5.30;99.90
13806;DHT22;6974;53.606;9.872;2023-03-05T09:12:01;5.30;99.90
13806;DHT22;6974;53.606;9.872;2023-03-05T09:14:28;5.30;99.90
13806;DHT22;6974;53.606;9.872;2023-03-05T09:16:55;5.40;99.90
13806;DHT22;6974;53.606;9.872;2023-03-05T09:19:23;5.40;99.90
13806;DHT22;6974;53.606;9.872;2023-03-05T09:21:50;5.40;99.90
13806;DHT22;6974;53.606;9.872;2023-03-05T09:24:17;5.50;99.90
13806;DHT22;6974;53.606;9.872;2023-03-05T09:26:44;5.50;99.90
13806;DHT22;6974;53.606;9.872;2023-03-05T09:29:12;5.60;99.90
13806;DHT22;6974;53.606;9.872;2023-03-05T09:31:39;5.70;99.90
13806;DHT22;6974;53.606;9.872;2023-03-05T09:34:07;5.70;99.90
13806;DHT22;6974;53.606;9.872;2023-03-05T09:36:34;5.80;99.90
13806;DHT22;6974;53.606;9.872;2023-03-05T09:39:01;5.90;99.90
13806;DHT22;6974;53.606;9.872;2023-03-05T09:41:35;5.80;99.90
13806;DHT22;6974;53.606;9.872;2023-03-05T09:44:14;5.60;99.90
13806;DHT22;6974;53.606;9.872;2023-03-05T09:46:51;5.50;99.90
13806;DHT22;6974;53.606;9.872;2023-03-05T09:49:29;5.40;99.90
13806;DHT22;6974;53.606;9.872;2023-03-05T09:52:02;5.30;99.90
13806;DHT22;6974;53.606;9.872;2023-03-05T09:54:36;5.30;99.90
13806;DHT22;6974;53.606;9.872;2023-03-05T09:57:11;5.20;99.90
13806;DHT22;6974;53.606;9.872;2023-03-05T09:59:46;5.20;99.90
13806;DHT22;6974;53.606;9.872;2023-03-05T10:02:17;5.10;99.90
13806;DHT22;6974;53.606;9.872;2023-03-05T10:04:48;5.10;99.90
13806;DHT22;6974;53.606;9.872;2023-03-05T10:07:21;5.10;99.90
13806;DHT22;6974;53.606;9.872;2023-03-05T10:09:55;5.00;99.90
13806;DHT22;6974;53.606;9.872;2023-03-05T10:12:29;5.00;99.90
13806;DHT22;6974;53.606;9.872;2023-03-05T10:15:00;4.90;99.90
13806;DHT22;6974;53.606;9.872;2023-03-05T10:18:10;4.80;99.90
13806;DHT22;6974;53.606;9.872;2023-03-05T10:20:53;4.80;99.90
13806;DHT22;6974;53.606;9.872;2023-03-05T10:23:25;4.80;99.90
13806;DHT22;6974;53.606;9.872;2023-03-05T10:26:15;4.80;99.90
13806;DHT22;6974;53.606;9.872;2023-03-05T10:28:50;4.80;99.90
13806;DHT22;6974;53.606;9.872;2023-03-05T10:31:34;4.80;99.90
13806;DHT22;6974;53.606;9.872;2023-03-05T10:34:26;4.90;99.90
13806;DHT22;6974;53.606;9.872;2023-03-05T10:37:09;5.00;99.90
13806;DHT22;6974;53.606;9.872;2023-03-05T10:39:50;5.10;99.90
13806;DHT22;6974;53.606;9.872;2023-03-05T10:42:27;5.10;99.90
13806;DHT22;6974;53.606;9.872;2023-03-05T10:44:57;5.20;99.90
13806;DHT22;6974;53.606;9.872;2023-03-05T10:47:29;5.20;99.90
13806;DHT22;6974;53.606;9.872;2023-03-05T10:49:58;5.30;99.90
13806;DHT22;6974;53.606;9.872;2023-03-05T10:52:30;5.50;99.90
13806;DHT22;6974;53.606;9.872;2023-03-05T10:54:58;5.70;99.90
13806;DHT22;6974;53.606;9.872;2023-03-05T10:57:27;6.00;99.90
13806;DHT22;6974;53.606;9.872;2023-03-05T11:00:00;6.20;99.90
13806;DHT22;6974;53.606;9.872;2023-03-05T11:02:52;6.30;99.90
13806;DHT22;6974;53.606;9.872;2023-03-05T11:05:44;6.40;99.90
13806;DHT22;6974;53.606;9.872;2023-03-05T11:08:30;6.40;99.90
13806;DHT22;6974;53.606;9.872;2023-03-05T11:11:09;6.40;99.90
13806;DHT22;6974;53.606;9.872;2023-03-05T11:13:43;6.20;99.90
13806;DHT22;6974;53.606;9.872;2023-03-05T11:16:16;6.10;99.90
13806;DHT22;6974;53.606;9.872;2023-03-05T11:18:45;5.90;99.90
13806;DHT22;6974;53.606;9.872;2023-03-05T11:21:18;5.90;99.90
13806;DHT22;6974;53.606;9.872;2023-03-05T11:24:02;6.00;99.90
13806;DHT22;6974;53.606;9.872;2023-03-05T11:26:30;6.20;99.90
13806;DHT22;6974;53.606;9.872;2023-03-05T11:28:59;6.30;99.90
13806;DHT22;6974;53.606;9.872;2023-03-05T11:31:28;6.60;99.90
13806;DHT22;6974;53.606;9.872;2023-03-05T11:33:59;6.90;99.90
13806;DHT22;6974;53.606;9.872;2023-03-05T11:36:28;7.10;99.90
13806;DHT22;6974;53.606;9.872;2023-03-05T11:38:58;7.20;99.90
13806;DHT22;6974;53.606;9.872;2023-03-05T11:41:30;7.20;99.90
13806;DHT22;6974;53.606;9.872;2023-03-05T11:44:00;7.20;99.90
13806;DHT22;6974;53.606;9.872;2023-03-05T11:46:29;7.10;99.90
13806;DHT22;6974;53.606;9.872;2023-03-05T11:49:01;7.10;99.90
13806;DHT22;6974;53.606;9.872;2023-03-05T11:51:34;7.10;99.90
13806;DHT22;6974;53.606;9.872;2023-03-05T11:54:06;7.20;99.90
13806;DHT22;6974;53.606;9.872;2023-03-05T11:56:35;7.30;99.90
13806;DHT22;6974;53.606;9.872;2023-03-05T11:59:06;7.30;99.90
13806;DHT22;6974;53.606;9.872;2023-03-05T12:01:41;7.30;99.90
13806;DHT22;6974;53.606;9.872;2023-03-05T12:04:10;7.20;99.90
13806;DHT22;6974;53.606;9.872;2023-03-05T12:06:39;7.10;99.90
13806;DHT22;6974;53.606;9.872;2023-03-05T12:09:11;7.10;99.90
13806;DHT22;6974;53.606;9.872;2023-03-05T12:11:39;7.00;99.90
13806;DHT22;6974;53.606;9.872;2023-03-05T12:14:13;6.90;99.90
13806;DHT22;6974;53.606;9.872;2023-03-05T12:16:45;6.90;99.90
13806;DHT22;6974;53.606;9.872;2023-03-05T12:19:27;7.00;99.90
13806;DHT22;6974;53.606;9.872;2023-03-05T12:21:57;7.10;99.90
13806;DHT22;6974;53.606;9.872;2023-03-05T12:24:35;7.00;99.90
13806;DHT22;6974;53.606;9.872;2023-03-05T12:27:08;7.10;99.90
13806;DHT22;6974;53.606;9.872;2023-03-05T12:29:41;7.00;99.90
13806;DHT22;6974;53.606;9.872;2023-03-05T12:35:23;6.90;99.90
13806;DHT22;6974;53.606;9.872;2023-03-05T12:38:02;6.70;99.90
13806;DHT22;6974;53.606;9.872;2023-03-05T12:40:30;6.70;99.90
13806;DHT22;6974;53.606;9.872;2023-03-05T12:42:59;6.60;99.90
13806;DHT22;6974;53.606;9.872;2023-03-05T12:45:37;6.60;99.90
13806;DHT22;6974;53.606;9.872;2023-03-05T12:48:40;6.50;99.90
13806;DHT22;6974;53.606;9.872;2023-03-05T12:51:14;6.50;99.90
13806;DHT22;6974;53.606;9.872;2023-03-05T12:53:53;6.40;99.90
13806;DHT22;6974;53.606;9.872;2023-03-05T12:56:21;6.50;99.90
13806;DHT22;6974;53.606;9.872;2023-03-05T12:58:52;6.50;99.90
13806;DHT22;6974;53.606;9.872;2023-03-05T13:01:33;6.60;99.90
13806;DHT22;6974;53.606;9.872;2023-03-05T13:04:03;6.70;99.90
13806;DHT22;6974;53.606;9.872;2023-03-05T13:06:37;6.60;99.90
13806;DHT22;6974;53.606;9.872;2023-03-05T13:09:13;6.60;99.90
13806;DHT22;6974;53.606;9.872;2023-03-05T13:11:43;6.70;99.90
13806;DHT22;6974;53.606;9.872;2023-03-05T13:14:33;6.80;99.90
13806;DHT22;6974;53.606;9.872;2023-03-05T13:17:02;6.80;99.90
13806;DHT22;6974;53.606;9.872;2023-03-05T13:19:48;6.80;99.90
13806;DHT22;6974;53.606;9.872;2023-03-05T13:22:17;6.90;99.90
13806;DHT22;6974;53.606;9.872;2023-03-05T13:24:43;6.80;99.90
13806;DHT22;6974;53.606;9.872;2023-03-05T13:27:24;6.80;99.90
13806;DHT22;6974;53.606;9.872;2023-03-05T13:29:54;6.80;99.90
13806;DHT22;6974;53.606;9.872;2023-03-05T13:32:24;6.80;99.90
13806;DHT22;6974;53.606;9.872;2023-03-05T13:34:54;6.80;99.90
13806;DHT22;6974;53.606;9.872;2023-03-05T13:37:24;6.80;99.90
13806;DHT22;6974;53.606;9.872;2023-03-05T13:39:54;6.70;99.90
13806;DHT22;6974;53.606;9.872;2023-03-05T13:42:23;6.70;99.90
13806;DHT22;6974;53.606;9.872;2023-03-05T13:44:55;6.70;99.90
13806;DHT22;6974;53.606;9.872;2023-03-05T13:47:23;6.70;99.90
13806;DHT22;6974;53.606;9.872;2023-03-05T13:49:56;6.70;99.90
13806;DHT22;6974;53.606;9.872;2023-03-05T13:52:27;6.70;99.90
13806;DHT22;6974;53.606;9.872;2023-03-05T13:54:55;6.60;99.90
13806;DHT22;6974;53.606;9.872;2023-03-05T13:57:34;6.60;99.90
13806;DHT22;6974;53.606;9.872;2023-03-05T14:00:02;6.60;99.90
13806;DHT22;6974;53.606;9.872;2023-03-05T14:02:29;6.50;99.90
13806;DHT22;6974;53.606;9.872;2023-03-05T14:04:57;6.60;99.90
13806;DHT22;6974;53.606;9.872;2023-03-05T14:07:30;6.50;99.90
13806;DHT22;6974;53.606;9.872;2023-03-05T14:09:57;6.50;99.90
13806;DHT22;6974;53.606;9.872;2023-03-05T14:12:31;6.50;99.90
13806;DHT22;6974;53.606;9.872;2023-03-05T14:14:59;6.60;99.90
13806;DHT22;6974;53.606;9.872;2023-03-05T14:17:44;6.50;99.90
13806;DHT22;6974;53.606;9.872;2023-03-05T14:20:23;6.40;99.90
13806;DHT22;6974;53.606;9.872;2023-03-05T14:22:52;6.40;99.90
13806;DHT22;6974;53.606;9.872;2023-03-05T14:25:30;6.50;99.90
13806;DHT22;6974;53.606;9.872;2023-03-05T14:27:59;6.40;99.90
13806;DHT22;6974;53.606;9.872;2023-03-05T14:30:27;6.30;99.90
13806;DHT22;6974;53.606;9.872;2023-03-05T14:32:55;6.30;99.90
13806;DHT22;6974;53.606;9.872;2023-03-05T14:35:26;6.40;99.90
13806;DHT22;6974;53.606;9.872;2023-03-05T14:37:57;6.50;99.90
13806;DHT22;6974;53.606;9.872;2023-03-05T14:40:27;6.50;99.90
13806;DHT22;6974;53.606;9.872;2023-03-05T14:42:56;6.40;99.90
13806;DHT22;6974;53.606;9.872;2023-03-05T14:45:24;6.40;99.90
13806;DHT22;6974;53.606;9.872;2023-03-05T14:47:53;6.40;99.90
13806;DHT22;6974;53.606;9.872;2023-03-05T14:50:22;6.40;99.90
13806;DHT22;6974;53.606;9.872;2023-03-05T14:52:50;6.50;99.90
13806;DHT22;6974;53.606;9.872;2023-03-05T14:55:21;6.60;99.90
13806;DHT22;6974;53.606;9.872;2023-03-05T14:57:50;6.50;99.90
13806;DHT22;6974;53.606;9.872;2023-03-05T15:00:19;6.50;99.90
13806;DHT22;6974;53.606;9.872;2023-03-05T15:02:46;6.40;99.90
13806;DHT22;6974;53.606;9.872;2023-03-05T15:05:13;6.40;99.90
13806;DHT22;6974;53.606;9.872;2023-03-05T15:07:40;6.30;99.90
13806;DHT22;6974;53.606;9.872;2023-03-05T15:10:10;6.30;99.90
13806;DHT22;6974;53.606;9.872;2023-03-05T15:12:39;6.40;99.90
13806;DHT22;6974;53.606;9.872;2023-03-05T15:15:09;6.30;99.90
13806;DHT22;6974;53.606;9.872;2023-03-05T15:17:39;6.30;99.90
13806;DHT22;6974;53.606;9.872;2023-03-05T15:20:13;6.20;99.90
13806;DHT22;6974;53.606;9.872;2023-03-05T15:22:40;6.10;99.90
13806;DHT22;6974;53.606;9.872;2023-03-05T15:25:07;6.10;99.90
13806;DHT22;6974;53.606;9.872;2023-03-05T15:27:34;6.10;99.90
13806;DHT22;6974;53.606;9.872;2023-03-05T15:30:03;6.10;99.90
13806;DHT22;6974;53.606;9.872;2023-03-05T15:32:30;6.10;99.90
13806;DHT22;6974;53.606;9.872;2023-03-05T15:34:57;6.10;99.90
13806;DHT22;6974;53.606;9.872;2023-03-05T15:37:24;6.00;99.90
13806;DHT22;6974;53.606;9.872;2023-03-05T15:39:52;6.00;99.90
13806;DHT22;6974;53.606;9.872;2023-03-05T15:42:19;6.00;99.90
13806;DHT22;6974;53.606;9.872;2023-03-05T15:44:45;6.00;99.90
13806;DHT22;6974;53.606;9.872;2023-03-05T15:47:14;5.90;99.90
13806;DHT22;6974;53.606;9.872;2023-03-05T15:49:40;5.90;99.90
13806;DHT22;6974;53.606;9.872;2023-03-05T15:52:07;5.80;99.90
13806;DHT22;6974;53.606;9.872;2023-03-05T15:54:34;5.70;99.90
13806;DHT22;6974;53.606;9.872;2023-03-05T15:57:01;5.80;99.90
13806;DHT22;6974;53.606;9.872;2023-03-05T15:59:28;5.70;99.90
13806;DHT22;6974;53.606;9.872;2023-03-05T16:01:55;5.80;99.90
13806;DHT22;6974;53.606;9.872;2023-03-05T16:04:23;5.80;99.90
13806;DHT22;6974;53.606;9.872;2023-03-05T16:06:50;5.80;99.90
13806;DHT22;6974;53.606;9.872;2023-03-05T16:09:19;5.80;99.90
13806;DHT22;6974;53.606;9.872;2023-03-05T16:11:46;5.70;99.90
13806;DHT22;6974;53.606;9.872;2023-03-05T16:14:18;5.70;99.90
13806;DHT22;6974;53.606;9.872;2023-03-05T16:16:47;5.60;99.90
13806;DHT22;6974;53.606;9.872;2023-03-05T16:19:15;5.60;99.90